createdAt,value
2022-10-12T00:00:50.491Z,100.00
2022-10-12T00:03:19.172Z,100.00
2022-10-12T00:05:47.011Z,100.00
2022-10-12T00:08:14.415Z,100.00
2022-10-12T00:10:44.858Z,100.00
2022-10-12T00:13:12.103Z,100.00
2022-10-12T00:15:42.249Z,100.00
2022-10-12T00:18:09.253Z,100.00
2022-10-12T00:20:36.585Z,100.00
2022-10-12T00:23:03.614Z,100.00
2022-10-12T00:25:30.916Z,100.00
2022-10-12T00:27:57.836Z,100.00
2022-10-12T00:30:24.809Z,100.00
2022-10-12T00:32:51.818Z,100.00
2022-10-12T00:35:18.786Z,100.00
2022-10-12T00:37:45.736Z,100.00
2022-10-12T00:40:13.056Z,100.00
2022-10-12T00:42:40.493Z,100.00
2022-10-12T00:45:09.914Z,100.00
2022-10-12T00:47:41.549Z,100.00
2022-10-12T00:50:11.477Z,100.00
2022-10-12T00:52:47.101Z,100.00
2022-10-12T00:55:19.145Z,100.00
2022-10-12T00:57:49.730Z,100.00
2022-10-12T01:00:18.903Z,100.00
2022-10-12T01:02:49.290Z,100.00
2022-10-12T01:05:18.999Z,100.00
2022-10-12T01:07:46.251Z,100.00
2022-10-12T01:10:13.933Z,100.00
2022-10-12T01:12:44.108Z,100.00
2022-10-12T01:15:13.571Z,100.00
2022-10-12T01:18:04.923Z,100.00
2022-10-12T01:20:59.509Z,100.00
2022-10-12T01:24:00.401Z,100.00
2022-10-12T01:27:18.489Z,100.00
2022-10-12T01:30:25.896Z,100.00
2022-10-12T01:33:36.668Z,100.00
2022-10-12T01:36:33.718Z,100.00
2022-10-12T01:39:18.173Z,100.00
2022-10-12T01:41:50.457Z,100.00
2022-10-12T01:44:22.405Z,100.00
2022-10-12T01:46:50.290Z,100.00
2022-10-12T01:49:23.572Z,100.00
2022-10-12T01:51:59.851Z,100.00
2022-10-12T01:55:36.909Z,100.00
2022-10-12T01:58:33.681Z,100.00
2022-10-12T02:01:34.042Z,100.00
2022-10-12T02:04:03.736Z,100.00
2022-10-12T02:06:46.223Z,100.00
2022-10-12T02:09:28.160Z,100.00
2022-10-12T02:12:04.083Z,100.00
2022-10-12T02:15:04.194Z,100.00
2022-10-12T02:17:35.587Z,100.00
2022-10-12T02:20:04.262Z,100.00
2022-10-12T02:22:36.902Z,100.00
2022-10-12T02:25:11.143Z,100.00
2022-10-12T02:27:45.643Z,100.00
2022-10-12T02:30:13.396Z,100.00
2022-10-12T02:33:03.669Z,100.00
2022-10-12T02:35:52.469Z,100.00
2022-10-12T02:38:52.651Z,100.00
2022-10-12T02:41:36.483Z,100.00
2022-10-12T02:44:10.552Z,100.00
2022-10-12T02:46:41.334Z,100.00
2022-10-12T02:49:11.046Z,100.00
2022-10-12T02:51:41.073Z,100.00
2022-10-12T02:54:08.669Z,100.00
2022-10-12T02:56:42.001Z,100.00
2022-10-12T02:59:09.388Z,100.00
2022-10-12T03:01:36.883Z,100.00
2022-10-12T03:04:04.494Z,100.00
2022-10-12T03:06:31.873Z,100.00
2022-10-12T03:08:58.873Z,100.00
2022-10-12T03:11:25.824Z,100.00
2022-10-12T03:13:54.691Z,100.00
2022-10-12T03:16:22.766Z,100.00
2022-10-12T03:18:50.790Z,100.00
2022-10-12T03:21:18.014Z,100.00
2022-10-12T03:23:45.413Z,100.00
2022-10-12T03:26:12.482Z,100.00
2022-10-12T03:28:39.488Z,100.00
2022-10-12T03:31:06.507Z,100.00
2022-10-12T03:33:33.499Z,100.00
2022-10-12T03:36:00.478Z,100.00
2022-10-12T03:38:27.460Z,100.00
2022-10-12T03:40:54.501Z,100.00
2022-10-12T03:43:21.512Z,100.00
2022-10-12T03:45:48.499Z,100.00
2022-10-12T03:48:15.676Z,100.00
2022-10-12T03:50:42.690Z,100.00
2022-10-12T03:53:10.098Z,100.00
2022-10-12T03:55:37.057Z,100.00
2022-10-12T03:58:04.060Z,100.00
2022-10-12T04:00:31.257Z,100.00
2022-10-12T04:02:58.375Z,100.00
2022-10-12T04:05:25.487Z,100.00
2022-10-12T04:07:52.709Z,100.00
2022-10-12T04:10:20.307Z,100.00
2022-10-12T04:12:47.377Z,100.00
2022-10-12T04:15:14.777Z,100.00
2022-10-12T04:17:42.084Z,100.00
2022-10-12T04:20:11.643Z,100.00
2022-10-12T04:22:39.713Z,100.00
2022-10-12T04:25:07.163Z,100.00
2022-10-12T04:27:34.397Z,100.00
2022-10-12T04:30:01.364Z,100.00
2022-10-12T04:32:28.256Z,100.00
2022-10-12T04:34:55.195Z,100.00
2022-10-12T04:37:22.167Z,100.00
2022-10-12T04:39:49.112Z,100.00
2022-10-12T04:42:15.997Z,100.00
2022-10-12T04:44:43.025Z,100.00
2022-10-12T04:47:10.459Z,100.00
2022-10-12T04:49:37.840Z,100.00
2022-10-12T04:52:05.202Z,100.00
2022-10-12T04:54:32.872Z,100.00
2022-10-12T04:57:00.209Z,100.00
2022-10-12T04:59:27.797Z,100.00
2022-10-12T05:01:54.892Z,100.00
2022-10-12T05:04:21.918Z,100.00
2022-10-12T05:06:48.824Z,100.00
2022-10-12T05:09:17.172Z,100.00
2022-10-12T05:11:44.513Z,100.00
2022-10-12T05:14:11.797Z,100.00
2022-10-12T05:16:38.736Z,100.00
2022-10-12T05:19:05.695Z,100.00
2022-10-12T05:21:33.591Z,100.00
2022-10-12T05:24:00.510Z,100.00
2022-10-12T05:26:27.678Z,100.00
2022-10-12T05:28:54.848Z,100.00
2022-10-12T05:31:21.814Z,100.00
2022-10-12T05:33:48.794Z,100.00
2022-10-12T05:36:15.832Z,100.00
2022-10-12T05:38:42.805Z,100.00
2022-10-12T05:41:09.877Z,100.00
2022-10-12T05:43:36.802Z,100.00
2022-10-12T05:46:04.594Z,100.00
2022-10-12T05:48:33.159Z,100.00
2022-10-12T05:51:00.148Z,100.00
2022-10-12T05:53:27.715Z,100.00
2022-10-12T05:56:00.509Z,100.00
2022-10-12T05:58:30.627Z,100.00
2022-10-12T06:01:10.242Z,100.00
2022-10-12T06:03:37.549Z,100.00
2022-10-12T06:06:06.507Z,100.00
2022-10-12T06:08:35.004Z,100.00
2022-10-12T06:11:02.358Z,100.00
2022-10-12T06:13:29.351Z,100.00
2022-10-12T06:15:56.651Z,100.00
2022-10-12T06:18:23.674Z,100.00
2022-10-12T06:21:08.743Z,100.00
2022-10-12T06:23:40.964Z,100.00
2022-10-12T06:26:07.943Z,100.00
2022-10-12T06:28:35.101Z,100.00
2022-10-12T06:31:02.119Z,100.00
2022-10-12T06:33:29.251Z,100.00
2022-10-12T06:35:57.013Z,100.00
2022-10-12T06:38:25.108Z,100.00
2022-10-12T06:40:53.554Z,100.00
2022-10-12T06:43:22.815Z,100.00
2022-10-12T06:45:50.421Z,100.00
2022-10-12T06:48:18.748Z,100.00
2022-10-12T06:50:47.876Z,100.00
2022-10-12T06:53:14.878Z,100.00
2022-10-12T06:55:41.984Z,100.00
2022-10-12T06:58:09.057Z,100.00
2022-10-12T07:00:36.369Z,100.00
2022-10-12T07:03:03.702Z,100.00
2022-10-12T07:05:30.677Z,100.00
2022-10-12T07:07:58.018Z,100.00
2022-10-12T07:10:25.410Z,100.00
2022-10-12T07:12:52.345Z,100.00
2022-10-12T07:15:19.555Z,100.00
2022-10-12T07:17:46.500Z,100.00
2022-10-12T07:20:13.986Z,100.00
2022-10-12T07:22:40.880Z,100.00
2022-10-12T07:25:08.633Z,100.00
2022-10-12T07:27:35.772Z,100.00
2022-10-12T07:30:03.987Z,100.00
2022-10-12T07:32:30.900Z,100.00
2022-10-12T07:34:57.831Z,100.00
2022-10-12T07:37:25.087Z,100.00
2022-10-12T07:39:57.075Z,100.00
2022-10-12T07:42:25.392Z,100.00
2022-10-12T07:44:52.527Z,100.00
2022-10-12T07:47:19.655Z,100.00
2022-10-12T07:49:46.557Z,100.00
2022-10-12T07:52:13.555Z,100.00
2022-10-12T07:54:40.478Z,100.00
2022-10-12T07:57:08.460Z,100.00
2022-10-12T07:59:35.389Z,100.00
2022-10-12T08:02:02.388Z,100.00
2022-10-12T08:04:29.398Z,100.00
2022-10-12T08:06:57.939Z,100.00
2022-10-12T08:09:24.877Z,100.00
2022-10-12T08:11:51.784Z,100.00
2022-10-12T08:14:18.736Z,100.00
2022-10-12T08:16:45.780Z,100.00
2022-10-12T08:19:13.678Z,100.00
2022-10-12T08:21:42.570Z,100.00
2022-10-12T08:24:11.352Z,100.00
2022-10-12T08:26:39.047Z,100.00
2022-10-12T08:29:08.129Z,100.00
2022-10-12T08:31:35.951Z,100.00
2022-10-12T08:34:04.240Z,100.00
2022-10-12T08:36:31.259Z,100.00
2022-10-12T08:38:58.464Z,100.00
2022-10-12T08:42:12.798Z,100.00
2022-10-12T08:45:19.889Z,100.00
2022-10-12T08:48:14.388Z,100.00
2022-10-12T08:50:54.633Z,100.00
2022-10-12T08:53:37.728Z,100.00
2022-10-12T08:56:05.110Z,100.00
2022-10-12T08:58:36.847Z,100.00
2022-10-12T09:01:26.002Z,100.00
2022-10-12T09:04:21.142Z,100.00
2022-10-12T09:07:19.831Z,100.00
2022-10-12T09:10:20.932Z,100.00
2022-10-12T09:13:25.761Z,100.00
2022-10-12T09:15:55.219Z,100.00
2022-10-12T09:18:40.831Z,100.00
2022-10-12T09:21:17.307Z,100.00
2022-10-12T09:23:45.040Z,100.00
2022-10-12T09:26:19.677Z,100.00
2022-10-12T09:28:54.547Z,95.06
2022-10-12T09:32:04.678Z,77.77
2022-10-12T09:34:32.646Z,69.85
2022-10-12T09:37:03.417Z,59.69
2022-10-12T09:39:39.630Z,55.83
2022-10-12T09:42:06.924Z,52.98
2022-10-12T09:44:44.757Z,52.19
2022-10-12T09:47:28.291Z,50.98
2022-10-12T09:50:04.270Z,49.71
2022-10-12T09:52:44.806Z,46.83
2022-10-12T09:55:15.540Z,42.85
2022-10-12T09:57:54.467Z,43.34
2022-10-12T10:00:32.228Z,43.54
2022-10-12T10:03:01.227Z,43.22
2022-10-12T10:05:37.590Z,41.95
2022-10-12T10:08:24.282Z,40.20
2022-10-12T10:10:57.517Z,39.74
2022-10-12T10:13:31.693Z,37.12
2022-10-12T10:16:08.850Z,36.24
2022-10-12T10:18:49.249Z,35.81
2022-10-12T10:21:36.570Z,34.59
2022-10-12T10:24:21.713Z,34.22
2022-10-12T10:27:03.410Z,34.45
2022-10-12T10:29:37.851Z,34.99
2022-10-12T10:32:27.225Z,33.96
2022-10-12T10:35:13.218Z,32.38
2022-10-12T10:37:45.275Z,33.81
2022-10-12T10:40:32.210Z,33.55
2022-10-12T10:43:05.109Z,32.96
2022-10-12T10:48:24.640Z,29.78
2022-10-12T10:51:00.985Z,31.90
2022-10-12T10:53:42.066Z,29.40
2022-10-12T10:56:24.881Z,30.09
2022-10-12T10:59:15.576Z,30.07
2022-10-12T11:01:59.477Z,30.30
2022-10-12T11:04:45.701Z,29.47
2022-10-12T11:07:37.398Z,29.09
2022-10-12T11:10:30.501Z,27.58
2022-10-12T11:13:25.574Z,28.99
2022-10-12T11:16:11.602Z,29.13
2022-10-12T11:18:55.450Z,28.20
2022-10-12T11:21:39.493Z,28.03
2022-10-12T11:24:09.619Z,27.71
2022-10-12T11:26:51.232Z,28.54
2022-10-12T11:29:18.538Z,29.37
2022-10-12T11:32:07.725Z,30.58
2022-10-12T11:35:05.849Z,29.58
2022-10-12T11:37:47.550Z,28.73
2022-10-12T11:41:00.256Z,28.27
2022-10-12T11:43:26.706Z,29.75
2022-10-12T11:46:02.914Z,28.89
2022-10-12T11:48:52.741Z,28.48
2022-10-12T11:51:19.638Z,29.26
2022-10-12T11:54:18.755Z,31.59
2022-10-12T11:56:58.680Z,31.60
2022-10-12T11:59:44.214Z,30.85
2022-10-12T12:02:26.735Z,29.50
2022-10-12T12:04:54.747Z,32.04
2022-10-12T12:07:43.814Z,32.25
2022-10-12T12:10:44.271Z,32.87
2022-10-12T12:13:12.695Z,32.12
2022-10-12T12:16:03.813Z,33.28
2022-10-12T12:18:52.698Z,35.70
2022-10-12T12:21:20.139Z,38.46
2022-10-12T12:23:55.670Z,38.84
2022-10-12T12:26:28.067Z,41.42
2022-10-12T12:29:22.039Z,41.84
2022-10-12T12:31:59.120Z,44.95
2022-10-12T12:34:27.875Z,43.84
2022-10-12T12:36:56.457Z,44.87
2022-10-12T12:39:32.724Z,46.31
2022-10-12T12:42:09.192Z,48.31
2022-10-12T12:44:43.045Z,48.16
2022-10-12T12:50:02.462Z,47.74
2022-10-12T12:52:40.003Z,49.01
2022-10-12T12:55:50.673Z,49.23
2022-10-12T12:58:33.558Z,49.99
2022-10-12T13:01:36.745Z,52.53
2022-10-12T13:04:24.720Z,50.85
2022-10-12T13:07:00.516Z,49.41
2022-10-12T13:09:38.318Z,50.34
2022-10-12T13:12:32.399Z,51.73
2022-10-12T13:15:20.909Z,50.39
2022-10-12T13:18:48.834Z,50.66
2022-10-12T13:21:22.747Z,49.68
2022-10-12T13:24:11.823Z,50.29
2022-10-12T13:26:41.155Z,50.25
2022-10-12T13:29:20.120Z,50.44
2022-10-12T13:31:52.652Z,50.20
2022-10-12T13:34:26.841Z,51.09
2022-10-12T13:37:00.380Z,50.19
2022-10-12T13:39:28.769Z,50.04
2022-10-12T13:42:01.210Z,49.67
2022-10-12T13:44:36.452Z,49.44
2022-10-12T13:47:31.149Z,49.27
2022-10-12T13:49:58.861Z,50.48
2022-10-12T13:52:32.548Z,50.76
2022-10-12T13:55:01.115Z,51.08
2022-10-12T13:57:46.179Z,51.41
2022-10-12T14:00:18.628Z,51.52
2022-10-12T14:03:06.166Z,51.89
2022-10-12T14:05:42.333Z,52.54
2022-10-12T14:08:25.237Z,51.65
2022-10-12T14:10:55.099Z,51.85
2022-10-12T14:13:34.668Z,51.90
2022-10-12T14:16:05.012Z,51.86
2022-10-12T14:18:44.880Z,52.32
2022-10-12T14:21:26.789Z,52.36
2022-10-12T14:23:57.797Z,52.47
2022-10-12T14:26:30.173Z,53.22
2022-10-12T14:28:59.425Z,53.43
2022-10-12T14:31:52.894Z,54.12
2022-10-12T14:34:46.371Z,54.81
2022-10-12T14:37:16.078Z,55.76
2022-10-12T14:39:45.596Z,57.43
2022-10-12T14:42:28.262Z,56.86
2022-10-12T14:44:55.281Z,56.59
2022-10-12T14:47:43.020Z,56.16
2022-10-12T14:50:19.650Z,56.30
2022-10-12T14:52:49.950Z,56.61
2022-10-12T14:55:29.571Z,57.11
2022-10-12T14:57:57.884Z,57.89
2022-10-12T15:00:31.842Z,58.47
2022-10-12T15:03:00.028Z,58.61
2022-10-12T15:05:31.929Z,59.60
2022-10-12T15:08:00.590Z,61.05
2022-10-12T15:10:29.164Z,60.24
2022-10-12T15:12:56.607Z,61.68
2022-10-12T15:15:44.214Z,62.14
2022-10-12T15:18:11.680Z,62.19
2022-10-12T15:20:39.595Z,62.45
2022-10-12T15:23:06.997Z,63.27
2022-10-12T15:25:54.966Z,63.79
2022-10-12T15:28:23.300Z,64.49
2022-10-12T15:33:39.051Z,66.62
2022-10-12T15:36:07.039Z,66.82
2022-10-12T15:38:34.319Z,66.69
2022-10-12T15:41:01.683Z,68.23
2022-10-12T15:43:29.144Z,67.90
2022-10-12T15:45:56.605Z,68.54
2022-10-12T15:48:23.619Z,68.67
2022-10-12T15:50:50.725Z,70.14
2022-10-12T15:53:25.542Z,70.35
2022-10-12T15:55:56.051Z,70.98
2022-10-12T15:58:23.457Z,70.63
2022-10-12T16:00:50.603Z,71.14
2022-10-12T16:03:25.644Z,71.82
2022-10-12T16:05:53.883Z,72.15
2022-10-12T16:08:20.827Z,72.20
2022-10-12T16:10:48.961Z,72.58
2022-10-12T16:13:17.353Z,72.76
2022-10-12T16:15:44.657Z,72.85
2022-10-12T16:18:12.210Z,73.45
2022-10-12T16:20:41.358Z,73.72
2022-10-12T16:23:25.177Z,74.39
2022-10-12T16:25:53.095Z,74.43
2022-10-12T16:28:21.246Z,75.40
2022-10-12T16:30:49.649Z,76.85
2022-10-12T16:33:17.566Z,76.71
2022-10-12T16:35:45.040Z,76.83
2022-10-12T16:38:14.508Z,77.37
2022-10-12T16:40:42.547Z,78.65
2022-10-12T16:43:10.355Z,78.85
2022-10-12T16:45:38.175Z,80.30
2022-10-12T16:48:05.386Z,80.67
2022-10-12T16:50:32.373Z,81.44
2022-10-12T16:53:00.072Z,82.06
2022-10-12T16:55:27.042Z,81.88
2022-10-12T16:57:54.372Z,82.80
2022-10-12T17:00:21.784Z,82.93
2022-10-12T17:02:48.829Z,83.23
2022-10-12T17:05:15.902Z,84.31
2022-10-12T17:07:42.882Z,84.47
2022-10-12T17:10:10.432Z,84.81
2022-10-12T17:12:37.385Z,85.71
2022-10-12T17:15:05.736Z,86.61
2022-10-12T17:17:32.657Z,87.67
2022-10-12T17:19:59.615Z,88.43
2022-10-12T17:22:26.978Z,88.80
2022-10-12T17:24:53.891Z,88.81
2022-10-12T17:27:20.936Z,89.76
2022-10-12T17:29:47.993Z,91.01
2022-10-12T17:32:15.802Z,91.74
2022-10-12T17:34:44.822Z,92.26
2022-10-12T17:37:15.171Z,92.99
2022-10-12T17:39:46.219Z,94.24
2022-10-12T17:42:13.814Z,95.11
2022-10-12T17:44:40.948Z,95.07
2022-10-12T17:47:07.851Z,95.67
2022-10-12T17:49:35.240Z,96.27
2022-10-12T17:52:02.560Z,96.82
2022-10-12T17:54:29.612Z,97.07
2022-10-12T17:56:57.312Z,97.40
2022-10-12T17:59:25.161Z,98.58
2022-10-12T18:01:52.918Z,99.09
2022-10-12T18:04:20.356Z,99.05
2022-10-12T18:06:48.070Z,98.52
2022-10-12T18:09:15.656Z,99.23
2022-10-12T18:11:44.218Z,99.71
2022-10-12T18:14:13.191Z,100.00
2022-10-12T18:16:41.271Z,100.00
2022-10-12T18:19:11.588Z,100.00
2022-10-12T18:21:39.573Z,100.00
2022-10-12T18:24:16.108Z,100.00
2022-10-12T18:26:45.797Z,100.00
2022-10-12T18:29:16.174Z,100.00
2022-10-12T18:31:43.151Z,100.00
2022-10-12T18:34:10.537Z,100.00
2022-10-12T18:36:39.540Z,100.00
2022-10-12T18:39:06.540Z,100.00
2022-10-12T18:41:33.528Z,100.00
2022-10-12T18:44:02.450Z,100.00
2022-10-12T18:46:33.017Z,100.00
2022-10-12T18:49:04.961Z,100.00
2022-10-12T18:51:35.974Z,100.00
2022-10-12T18:54:04.285Z,100.00
2022-10-12T18:56:33.620Z,100.00
2022-10-12T18:59:02.338Z,100.00
2022-10-12T19:01:30.775Z,100.00
2022-10-12T19:04:00.636Z,100.00
2022-10-12T19:06:31.677Z,100.00
2022-10-12T19:09:01.350Z,100.00
2022-10-12T19:11:30.976Z,100.00
2022-10-12T19:14:08.020Z,100.00
2022-10-12T19:16:35.707Z,100.00
2022-10-12T19:19:07.254Z,100.00
2022-10-12T19:21:35.004Z,100.00
2022-10-12T19:24:04.345Z,100.00
2022-10-12T19:26:31.814Z,100.00
2022-10-12T19:28:58.832Z,100.00
2022-10-12T19:31:36.225Z,100.00
2022-10-12T19:34:08.127Z,100.00
2022-10-12T19:36:36.979Z,100.00
2022-10-12T19:39:12.051Z,100.00
2022-10-12T19:41:39.975Z,100.00
2022-10-12T19:44:07.094Z,100.00
2022-10-12T19:46:35.051Z,100.00
2022-10-12T19:49:01.987Z,100.00
2022-10-12T19:51:31.876Z,100.00
2022-10-12T19:54:04.847Z,100.00
2022-10-12T19:56:33.856Z,100.00
2022-10-12T19:59:00.843Z,100.00
2022-10-12T20:01:32.762Z,100.00
2022-10-12T20:03:59.911Z,100.00
2022-10-12T20:06:29.993Z,100.00
2022-10-12T20:09:02.272Z,100.00
2022-10-12T20:11:29.945Z,100.00
2022-10-12T20:13:57.958Z,100.00
2022-10-12T20:16:25.866Z,100.00
2022-10-12T20:18:52.938Z,100.00
2022-10-12T20:21:23.428Z,100.00
2022-10-12T20:23:51.449Z,100.00
2022-10-12T20:26:25.239Z,100.00
2022-10-12T20:28:54.357Z,100.00
2022-10-12T20:31:23.880Z,100.00
2022-10-12T20:33:53.003Z,100.00
2022-10-12T20:36:28.916Z,100.00
2022-10-12T20:38:58.822Z,100.00
2022-10-12T20:41:27.771Z,100.00
2022-10-12T20:44:00.322Z,100.00
2022-10-12T20:46:29.252Z,100.00
2022-10-12T20:48:59.705Z,100.00
2022-10-12T20:51:32.749Z,100.00
2022-10-12T20:54:01.185Z,100.00
2022-10-12T20:56:30.806Z,100.00
2022-10-12T20:58:58.900Z,100.00
2022-10-12T21:01:26.246Z,100.00
2022-10-12T21:03:54.482Z,100.00
2022-10-12T21:06:23.318Z,100.00
2022-10-12T21:08:53.117Z,100.00
2022-10-12T21:11:21.243Z,100.00
2022-10-12T21:13:48.760Z,100.00
2022-10-12T21:16:16.858Z,100.00
2022-10-12T21:18:43.920Z,100.00
2022-10-12T21:21:19.477Z,100.00
2022-10-12T21:23:55.921Z,100.00
2022-10-12T21:26:25.600Z,100.00
2022-10-12T21:28:53.037Z,100.00
2022-10-12T21:31:21.252Z,100.00
2022-10-12T21:33:48.308Z,100.00
2022-10-12T21:36:23.087Z,100.00
2022-10-12T21:38:50.671Z,100.00
2022-10-12T21:41:24.195Z,100.00
2022-10-12T21:43:52.444Z,100.00
2022-10-12T21:46:27.000Z,100.00
2022-10-12T21:48:54.591Z,100.00
2022-10-12T21:51:23.948Z,100.00
2022-10-12T21:53:52.285Z,100.00
2022-10-12T21:56:20.811Z,100.00
2022-10-12T21:58:49.341Z,100.00
2022-10-12T22:01:22.278Z,100.00
2022-10-12T22:03:57.646Z,100.00
2022-10-12T22:06:27.533Z,100.00
2022-10-12T22:09:00.755Z,100.00
2022-10-12T22:11:31.925Z,100.00
2022-10-12T22:14:05.312Z,100.00
2022-10-12T22:16:33.309Z,100.00
2022-10-12T22:19:03.798Z,100.00
2022-10-12T22:21:35.473Z,100.00
2022-10-12T22:24:02.703Z,100.00
2022-10-12T22:26:30.464Z,100.00
2022-10-12T22:29:01.546Z,100.00
2022-10-12T22:31:28.868Z,100.00
2022-10-12T22:33:56.409Z,100.00
2022-10-12T22:36:23.450Z,100.00
2022-10-12T22:38:50.559Z,100.00
2022-10-12T22:41:21.512Z,100.00
2022-10-12T22:43:52.349Z,100.00
2022-10-12T22:46:21.232Z,100.00
2022-10-12T22:48:49.150Z,100.00
2022-10-12T22:51:25.742Z,100.00
2022-10-12T22:53:52.755Z,100.00
2022-10-12T22:56:19.867Z,100.00
2022-10-12T22:58:48.886Z,100.00
2022-10-12T23:01:17.757Z,100.00
2022-10-12T23:03:45.905Z,100.00
2022-10-12T23:06:18.229Z,100.00
2022-10-12T23:08:46.322Z,100.00
2022-10-12T23:11:25.595Z,100.00
2022-10-12T23:13:54.388Z,100.00
2022-10-12T23:16:28.922Z,100.00
2022-10-12T23:19:01.954Z,100.00
2022-10-12T23:21:30.673Z,100.00
2022-10-12T23:24:00.183Z,100.00
2022-10-12T23:26:29.282Z,100.00
2022-10-12T23:28:56.772Z,100.00
2022-10-12T23:31:29.128Z,100.00
2022-10-12T23:34:04.254Z,100.00
2022-10-12T23:36:31.976Z,100.00
2022-10-12T23:39:04.521Z,100.00
2022-10-12T23:41:31.562Z,100.00
2022-10-12T23:43:59.046Z,100.00
2022-10-12T23:46:26.943Z,100.00
2022-10-12T23:48:56.545Z,100.00
2022-10-12T23:51:23.520Z,100.00
2022-10-12T23:53:50.908Z,100.00
2022-10-12T23:56:17.917Z,100.00
2022-10-12T23:58:44.867Z,100.00
